Terminal Aerodrome Forecast
Issued by NWS

Current Version | Previous Version | Text Only | Print | Product List | Glossary On
Versions: 1 2 3 4 5 6 7 8 9 10 11 12 13 14 15
663
FTUS46 KPDT 041740
TAFBDN
TAF
KBDN 041740Z 0418/0518 VRB06KT P6SM SCT100 BKN250
     FM042000 31010KT P6SM VCSH BKN050 OVC080
      TEMPO 0421/0501 -TSRA BKN050CB BKN100
     FM050100 35010KT P6SM -RA OVC050
      TEMPO 0501/0505 -TSRA BKN050CB BKN100
     FM050500 35008KT P6SM VCSH BKN050 BKN100=

USA.gov is the U.S. government's official web portal to all federal, state and local government web resources and services.